Aurora, Nebraska
Current Conditions -  °F | °C
As of 6:35 PM on Sunday 21 Dec 2014 (Local Time) from KAUH Reporting Station
Overcast Overcast  
Wind Chill: 32°   Ceiling: 2100
Heat Index: 40°   Visibility: 10mi
Dew Point: 40°   Wind: 13mph
Humidity: 100%   Direction: 170°S
Pressure: 29.6"   Gusts: 18mph
Location:  40.87°N, 98°W
Report Text: KAUH 220035Z AUTO 17011G16KT 10SM OVC021 04/04 A2960 RMK AO2 T00420042
Loading
Personal Weather Stations






























Interactive Weather Map New forecast layout! Learn more

10-Day Weather Forecast

Advertisements
Track Severe Weather on mobile